createdAt,value
2022-09-18T00:00:11.728Z,61.45
2022-09-18T00:03:02.827Z,61.71
2022-09-18T00:05:31.264Z,61.34
2022-09-18T00:08:02.753Z,61.50
2022-09-18T00:10:33.790Z,61.40
2022-09-18T00:13:01.804Z,61.21
2022-09-18T00:15:30.012Z,61.23
2022-09-18T00:17:58.109Z,61.43
2022-09-18T00:20:25.986Z,61.37
2022-09-18T00:22:56.768Z,61.50
2022-09-18T00:25:24.777Z,61.60
2022-09-18T00:27:56.038Z,61.51
2022-09-18T00:30:23.949Z,61.42
2022-09-18T00:32:52.531Z,61.55
2022-09-18T00:35:26.162Z,61.78
2022-09-18T00:37:57.892Z,61.69
2022-09-18T00:40:35.014Z,61.50
2022-09-18T00:43:26.915Z,61.20
2022-09-18T00:46:26.784Z,60.62
2022-09-18T00:49:25.508Z,60.39
2022-09-18T00:51:54.582Z,60.51
2022-09-18T00:54:34.707Z,60.21
2022-09-18T00:57:16.851Z,59.87
2022-09-18T00:59:46.765Z,59.87
2022-09-18T01:02:17.389Z,59.95
2022-09-18T01:04:45.570Z,60.21
2022-09-18T01:07:47.151Z,60.48
2022-09-18T01:10:48.989Z,60.22
2022-09-18T01:13:48.843Z,60.19
2022-09-18T01:16:54.264Z,60.37
2022-09-18T01:19:49.848Z,60.47
2022-09-18T01:22:38.931Z,60.61
2022-09-18T01:25:22.972Z,60.69
2022-09-18T01:28:21.912Z,60.59
2022-09-18T01:30:51.076Z,60.68
2022-09-18T01:33:46.871Z,60.67
2022-09-18T01:36:21.408Z,60.83
2022-09-18T01:38:55.391Z,60.88
2022-09-18T01:41:28.107Z,60.87
2022-09-18T01:44:04.219Z,61.04
2022-09-18T01:46:32.900Z,60.92
2022-09-18T01:49:07.325Z,60.86
2022-09-18T01:52:05.936Z,61.10
2022-09-18T01:54:38.223Z,61.13
2022-09-18T01:57:30.414Z,61.25
2022-09-18T02:00:09.313Z,61.45
2022-09-18T02:03:21.224Z,60.81
2022-09-18T02:05:54.601Z,60.67
2022-09-18T02:08:29.386Z,60.97
2022-09-18T02:11:14.736Z,61.29
2022-09-18T02:14:12.230Z,61.41
2022-09-18T02:17:15.650Z,61.24
2022-09-18T02:19:49.022Z,61.46
2022-09-18T02:22:21.598Z,62.41
2022-09-18T02:24:53.627Z,62.04
2022-09-18T02:27:24.408Z,61.74
2022-09-18T02:30:01.574Z,61.98
2022-09-18T02:32:32.459Z,62.12
2022-09-18T02:35:00.455Z,61.53
2022-09-18T02:37:45.579Z,63.24
2022-09-18T02:41:04.210Z,62.63
2022-09-18T02:43:49.521Z,62.16
2022-09-18T02:46:53.575Z,62.32
2022-09-18T02:49:50.751Z,62.07
2022-09-18T02:52:40.449Z,62.20
2022-09-18T02:55:46.593Z,61.90
2022-09-18T02:58:27.651Z,61.87
2022-09-18T03:01:05.609Z,62.06
2022-09-18T03:03:40.396Z,61.62
2022-09-18T03:06:10.898Z,62.24
2022-09-18T03:08:42.578Z,62.57
2022-09-18T03:11:22.226Z,62.74
2022-09-18T03:14:02.127Z,62.71
2022-09-18T03:16:42.228Z,63.12
2022-09-18T03:19:21.676Z,62.88
2022-09-18T03:21:51.359Z,62.81
2022-09-18T03:24:25.583Z,62.75
2022-09-18T03:26:57.619Z,62.93
2022-09-18T03:29:30.895Z,63.11
2022-09-18T03:32:05.657Z,63.57
2022-09-18T03:34:42.243Z,61.51
2022-09-18T03:37:10.913Z,62.90
2022-09-18T03:39:39.140Z,63.18
2022-09-18T03:42:10.543Z,63.44
2022-09-18T03:44:41.654Z,63.40
2022-09-18T03:47:24.312Z,62.43
2022-09-18T03:49:52.554Z,62.98
2022-09-18T03:52:24.199Z,63.18
2022-09-18T03:54:57.722Z,63.85
2022-09-18T03:57:47.286Z,64.01
2022-09-18T04:00:35.630Z,64.50
2022-09-18T04:03:08.507Z,63.97
2022-09-18T04:05:59.647Z,64.36
2022-09-18T04:08:50.145Z,64.74
2022-09-18T04:11:26.355Z,63.80
2022-09-18T04:13:57.025Z,63.11
2022-09-18T04:16:28.145Z,64.13
2022-09-18T04:18:56.179Z,62.43
2022-09-18T04:21:24.618Z,62.74
2022-09-18T04:23:53.301Z,63.28
2022-09-18T04:26:26.595Z,63.80
2022-09-18T04:28:59.908Z,64.84
2022-09-18T04:31:30.490Z,64.27
2022-09-18T04:34:04.868Z,64.49
2022-09-18T04:36:33.826Z,63.68
2022-09-18T04:39:01.918Z,64.41
2022-09-18T04:41:32.836Z,64.06
2022-09-18T04:44:05.857Z,64.19
2022-09-18T04:46:34.060Z,63.96
2022-09-18T04:49:02.481Z,64.52
2022-09-18T04:51:34.125Z,64.40
2022-09-18T04:54:02.870Z,64.71
2022-09-18T04:56:34.138Z,65.13
2022-09-18T04:59:05.179Z,65.38
2022-09-18T05:01:34.909Z,65.48
2022-09-18T05:04:08.722Z,65.76
2022-09-18T05:06:47.452Z,65.82
2022-09-18T05:09:16.265Z,65.44
2022-09-18T05:11:47.266Z,66.10
2022-09-18T05:14:18.400Z,67.33
2022-09-18T05:16:53.542Z,67.87
2022-09-18T05:19:36.875Z,67.89
2022-09-18T05:22:09.445Z,67.65
2022-09-18T05:24:43.577Z,67.42
2022-09-18T05:27:27.063Z,67.40
2022-09-18T05:29:55.924Z,68.25
2022-09-18T05:32:31.369Z,67.81
2022-09-18T05:35:02.507Z,67.45
2022-09-18T05:37:33.412Z,66.90
2022-09-18T05:40:02.597Z,67.68
2022-09-18T05:42:56.128Z,68.37
2022-09-18T05:45:29.581Z,68.35
2022-09-18T05:48:08.523Z,68.04
2022-09-18T05:50:37.579Z,67.75
2022-09-18T05:53:12.595Z,67.39
2022-09-18T05:55:57.334Z,67.41
2022-09-18T05:58:26.060Z,67.61
2022-09-18T06:01:01.767Z,67.83
2022-09-18T06:03:45.996Z,69.07
2022-09-18T06:06:14.636Z,69.16
2022-09-18T06:08:48.725Z,69.45
2022-09-18T06:11:21.389Z,69.34
2022-09-18T06:13:52.696Z,69.58
2022-09-18T06:16:29.295Z,69.51
2022-09-18T06:19:04.794Z,68.99
2022-09-18T06:21:35.947Z,68.79
2022-09-18T06:24:05.645Z,69.09
2022-09-18T06:26:41.966Z,68.68
2022-09-18T06:29:12.748Z,68.18
2022-09-18T06:31:50.717Z,67.86
2022-09-18T06:34:25.809Z,67.79
2022-09-18T06:36:55.705Z,67.22
2022-09-18T06:39:52.885Z,67.19
2022-09-18T06:42:30.584Z,67.12
2022-09-18T06:45:33.396Z,67.72
2022-09-18T06:48:02.896Z,67.65
2022-09-18T06:50:33.992Z,67.40
2022-09-18T06:53:12.217Z,67.21
2022-09-18T06:55:51.094Z,67.07
2022-09-18T06:58:25.585Z,67.61
2022-09-18T07:00:59.842Z,67.64
2022-09-18T07:03:33.702Z,67.53
2022-09-18T07:06:36.847Z,68.00
2022-09-18T07:09:08.886Z,68.22
2022-09-18T07:12:18.355Z,68.46
2022-09-18T07:14:56.875Z,68.72
2022-09-18T07:17:26.721Z,68.81
2022-09-18T07:20:03.754Z,69.58
2022-09-18T07:22:47.014Z,69.13
2022-09-18T07:25:41.957Z,69.38
2022-09-18T07:28:12.860Z,69.50
2022-09-18T07:30:49.023Z,69.23
2022-09-18T07:33:43.087Z,69.17
2022-09-18T07:36:21.161Z,69.29
2022-09-18T07:38:55.533Z,69.57
2022-09-18T07:41:33.696Z,69.55
2022-09-18T07:44:34.391Z,70.21
2022-09-18T07:47:19.082Z,70.70
2022-09-18T07:49:56.678Z,70.37
2022-09-18T07:52:31.135Z,70.00
2022-09-18T07:55:32.646Z,69.56
2022-09-18T07:58:10.190Z,69.19
2022-09-18T08:01:02.551Z,69.27
2022-09-18T08:03:41.067Z,69.83
2022-09-18T08:06:15.110Z,69.84
2022-09-18T08:09:08.696Z,69.71
2022-09-18T08:12:02.880Z,69.45
2022-09-18T08:14:58.318Z,69.41
2022-09-18T08:17:36.012Z,69.33
2022-09-18T08:20:27.424Z,69.06
2022-09-18T08:23:11.155Z,68.76
2022-09-18T08:25:44.735Z,68.66
2022-09-18T08:28:17.146Z,68.67
2022-09-18T08:30:56.965Z,69.08
2022-09-18T08:33:31.313Z,68.73
2022-09-18T08:36:09.679Z,68.62
2022-09-18T08:38:45.538Z,68.64
2022-09-18T08:41:44.359Z,68.42
2022-09-18T08:44:16.034Z,68.59
2022-09-18T08:47:06.886Z,68.85
2022-09-18T08:49:39.650Z,68.56
2022-09-18T08:52:25.439Z,68.23
2022-09-18T08:55:24.889Z,68.27
2022-09-18T08:58:31.938Z,67.97
2022-09-18T09:01:06.423Z,67.97
2022-09-18T09:04:19.776Z,67.93
2022-09-18T09:07:14.412Z,67.74
2022-09-18T09:10:22.900Z,67.94
2022-09-18T09:13:39.749Z,67.55
2022-09-18T09:17:08.604Z,67.74
2022-09-18T09:20:45.853Z,68.25
2022-09-18T09:24:12.436Z,68.18
2022-09-18T09:27:32.190Z,69.52
2022-09-18T09:30:23.634Z,69.77
2022-09-18T09:33:25.465Z,67.17
2022-09-18T09:36:18.581Z,66.48
2022-09-18T09:38:57.786Z,66.82
2022-09-18T09:42:07.941Z,67.43
2022-09-18T09:44:53.712Z,68.56
2022-09-18T09:47:41.021Z,68.78
2022-09-18T09:50:37.281Z,69.56
2022-09-18T09:53:12.049Z,69.23
2022-09-18T09:56:14.381Z,69.50
2022-09-18T09:59:17.553Z,68.92
2022-09-18T10:02:20.418Z,69.83
2022-09-18T10:05:16.691Z,70.56
2022-09-18T10:08:28.695Z,71.18
2022-09-18T10:11:08.858Z,71.19
2022-09-18T10:14:16.897Z,70.98
2022-09-18T10:16:55.261Z,70.29
2022-09-18T10:19:43.101Z,70.45
2022-09-18T10:22:18.383Z,70.81
2022-09-18T10:25:10.535Z,71.24
2022-09-18T10:27:43.921Z,72.16
2022-09-18T10:30:20.842Z,72.49
2022-09-18T10:32:55.169Z,72.83
2022-09-18T10:35:52.777Z,72.82
2022-09-18T10:38:32.478Z,73.22
2022-09-18T10:41:39.344Z,73.93
2022-09-18T10:44:21.703Z,73.31
2022-09-18T10:47:03.127Z,73.07
2022-09-18T10:49:36.585Z,73.29
2022-09-18T10:52:35.069Z,73.56
2022-09-18T10:55:29.256Z,74.37
2022-09-18T10:58:01.057Z,74.23
2022-09-18T11:00:40.299Z,74.06
2022-09-18T11:03:37.959Z,74.49
2022-09-18T11:06:21.049Z,74.14
2022-09-18T11:09:03.088Z,74.08
2022-09-18T11:11:39.236Z,73.79
2022-09-18T11:14:53.403Z,73.68
2022-09-18T11:17:34.767Z,73.41
2022-09-18T11:20:04.939Z,73.19
2022-09-18T11:22:57.897Z,72.85
2022-09-18T11:26:00.217Z,72.94
2022-09-18T11:29:45.313Z,72.70
2022-09-18T11:32:30.891Z,72.42
2022-09-18T11:35:31.008Z,72.17
2022-09-18T11:38:14.772Z,71.54
2022-09-18T11:40:51.363Z,71.63
2022-09-18T11:44:26.403Z,71.98
2022-09-18T11:47:28.945Z,71.73
2022-09-18T11:50:56.569Z,71.20
2022-09-18T11:53:50.737Z,71.10
2022-09-18T11:56:32.281Z,70.93
2022-09-18T11:59:06.183Z,70.55
2022-09-18T12:01:48.954Z,70.35
2022-09-18T12:04:44.094Z,70.30
2022-09-18T12:08:05.373Z,70.20
2022-09-18T12:11:00.621Z,70.60
2022-09-18T12:13:45.420Z,70.46
2022-09-18T12:16:47.238Z,70.75
2022-09-18T12:19:49.328Z,70.87
2022-09-18T12:22:41.285Z,70.29
2022-09-18T12:25:16.811Z,70.53
2022-09-18T12:28:34.157Z,70.49
2022-09-18T12:31:36.465Z,70.20
2022-09-18T12:34:19.049Z,70.25
2022-09-18T12:37:01.417Z,70.54
2022-09-18T12:40:34.615Z,70.66
2022-09-18T12:43:26.742Z,70.84
2022-09-18T12:47:06.366Z,70.58
2022-09-18T12:49:50.690Z,71.17
2022-09-18T12:52:33.072Z,71.16
2022-09-18T12:56:03.169Z,71.40
2022-09-18T12:59:05.191Z,71.38
2022-09-18T13:01:54.581Z,71.03
2022-09-18T13:04:35.437Z,69.90
2022-09-18T13:07:31.077Z,69.34
2022-09-18T13:10:04.584Z,69.83
2022-09-18T13:12:59.624Z,69.63
2022-09-18T13:16:02.720Z,69.47
2022-09-18T13:19:14.910Z,68.78
2022-09-18T13:21:46.188Z,68.58
2022-09-18T13:24:26.854Z,67.94
2022-09-18T13:26:55.234Z,68.08
2022-09-18T13:29:56.564Z,67.80
2022-09-18T13:32:40.473Z,67.90
2022-09-18T13:35:42.032Z,67.97
2022-09-18T13:38:19.199Z,67.32
2022-09-18T13:41:12.728Z,66.72
2022-09-18T13:43:52.408Z,65.99
2022-09-18T13:47:12.331Z,65.53
2022-09-18T13:49:57.421Z,65.38
2022-09-18T13:52:45.461Z,64.85
2022-09-18T13:55:13.633Z,65.34
2022-09-18T13:58:56.006Z,64.70
2022-09-18T14:01:43.130Z,63.82
2022-09-18T14:04:43.690Z,63.48
2022-09-18T14:07:20.155Z,62.87
2022-09-18T14:10:20.788Z,63.03
2022-09-18T14:13:38.092Z,62.93
2022-09-18T14:16:38.965Z,62.55
2022-09-18T14:19:40.551Z,62.53
2022-09-18T14:22:26.889Z,62.73
2022-09-18T14:25:00.937Z,62.41
2022-09-18T14:28:08.265Z,62.93
2022-09-18T14:30:39.670Z,62.68
2022-09-18T14:33:23.928Z,62.41
2022-09-18T14:36:04.977Z,62.71
2022-09-18T14:38:47.252Z,62.46
2022-09-18T14:41:28.762Z,62.02
2022-09-18T14:44:01.845Z,61.53
2022-09-18T14:47:03.165Z,61.34
2022-09-18T14:50:04.501Z,60.85
2022-09-18T14:52:45.161Z,61.56
2022-09-18T14:55:22.276Z,61.31
2022-09-18T14:58:02.434Z,61.36
2022-09-18T15:01:06.779Z,61.37
2022-09-18T15:03:44.803Z,61.29
2022-09-18T15:06:40.081Z,61.27
2022-09-18T15:09:14.295Z,61.22
2022-09-18T15:12:06.281Z,60.53
2022-09-18T15:14:46.846Z,60.17
2022-09-18T15:17:43.979Z,60.53
2022-09-18T15:20:20.638Z,60.51
2022-09-18T15:22:57.035Z,60.09
2022-09-18T15:26:05.061Z,60.22
2022-09-18T15:29:14.804Z,59.92
2022-09-18T15:31:46.896Z,59.97
2022-09-18T15:34:26.706Z,59.44
2022-09-18T15:37:05.622Z,58.26
2022-09-18T15:40:16.097Z,60.85
2022-09-18T15:43:06.715Z,63.48
2022-09-18T15:45:42.779Z,62.51
2022-09-18T15:48:44.226Z,61.87
2022-09-18T15:51:41.590Z,61.42
2022-09-18T15:54:25.422Z,60.34
2022-09-18T15:57:03.879Z,60.14
2022-09-18T15:59:44.867Z,59.80
2022-09-18T16:02:34.785Z,59.98
2022-09-18T16:05:50.720Z,59.69
2022-09-18T16:08:27.371Z,57.88
2022-09-18T16:11:01.471Z,59.60
2022-09-18T16:13:56.424Z,61.30
2022-09-18T16:16:31.063Z,65.76
2022-09-18T16:19:50.773Z,65.29
2022-09-18T16:22:44.421Z,60.28
2022-09-18T16:25:49.661Z,56.83
2022-09-18T16:28:27.097Z,58.20
2022-09-18T16:31:01.904Z,59.55
2022-09-18T16:33:36.881Z,61.11
2022-09-18T16:36:28.540Z,64.12
2022-09-18T16:39:05.238Z,67.28
2022-09-18T16:41:34.208Z,65.74
2022-09-18T16:44:16.370Z,64.21
2022-09-18T16:47:01.979Z,63.27
2022-09-18T16:49:36.847Z,63.12
2022-09-18T16:52:05.584Z,62.51
2022-09-18T16:54:40.849Z,61.80
2022-09-18T16:57:20.806Z,61.49
2022-09-18T16:59:58.596Z,60.72
2022-09-18T17:02:32.969Z,60.41
2022-09-18T17:05:01.955Z,60.36
2022-09-18T17:07:33.223Z,60.12
2022-09-18T17:10:06.985Z,60.35
2022-09-18T17:12:38.690Z,60.25
2022-09-18T17:15:14.121Z,60.32
2022-09-18T17:17:49.530Z,60.50
2022-09-18T17:20:18.876Z,60.18
2022-09-18T17:22:53.286Z,60.17
2022-09-18T17:25:21.792Z,60.15
2022-09-18T17:27:58.089Z,59.86
2022-09-18T17:30:34.901Z,60.14
2022-09-18T17:33:03.054Z,58.67
2022-09-18T17:35:34.830Z,60.04
2022-09-18T17:38:09.022Z,60.66
2022-09-18T17:40:40.439Z,64.86
2022-09-18T17:43:15.732Z,65.36
2022-09-18T17:45:46.264Z,64.17
2022-09-18T17:48:14.196Z,63.36
2022-09-18T17:50:53.572Z,63.31
2022-09-18T17:53:28.264Z,63.14
2022-09-18T17:56:00.088Z,63.01
2022-09-18T17:58:29.433Z,63.22
2022-09-18T18:00:59.178Z,64.13
2022-09-18T18:03:27.953Z,63.94
2022-09-18T18:06:02.095Z,63.24
2022-09-18T18:08:30.650Z,63.20
2022-09-18T18:11:13.675Z,62.61
2022-09-18T18:13:43.256Z,62.84
2022-09-18T18:16:22.657Z,63.15
2022-09-18T18:18:56.278Z,62.74
2022-09-18T18:21:28.157Z,62.89
2022-09-18T18:24:09.205Z,62.28
2022-09-18T18:26:38.996Z,62.32
2022-09-18T18:29:22.953Z,62.15
2022-09-18T18:31:53.091Z,62.82
2022-09-18T18:34:22.504Z,62.43
2022-09-18T18:36:53.943Z,62.14
2022-09-18T18:39:27.495Z,61.56
2022-09-18T18:41:58.339Z,61.94
2022-09-18T18:44:26.807Z,62.01
2022-09-18T18:46:55.011Z,62.59
2022-09-18T18:49:23.906Z,62.75
2022-09-18T18:51:52.743Z,63.58
2022-09-18T18:54:21.939Z,64.09
2022-09-18T18:56:54.500Z,64.11
2022-09-18T18:59:25.663Z,64.32
2022-09-18T19:02:02.595Z,64.17
2022-09-18T19:04:51.334Z,65.08
2022-09-18T19:07:33.201Z,65.28
2022-09-18T19:10:08.089Z,65.34
2022-09-18T19:12:36.587Z,65.52
2022-09-18T19:15:13.852Z,64.61
2022-09-18T19:17:50.322Z,64.25
2022-09-18T19:20:25.277Z,64.21
2022-09-18T19:23:01.546Z,64.48
2022-09-18T19:25:40.118Z,63.99
2022-09-18T19:28:25.286Z,63.73
2022-09-18T19:31:03.775Z,63.93
2022-09-18T19:33:41.239Z,65.05
2022-09-18T19:36:21.046Z,65.05
2022-09-18T19:39:04.461Z,65.12
2022-09-18T19:42:04.032Z,65.03
2022-09-18T19:44:56.296Z,65.41
2022-09-18T19:47:37.721Z,65.05
2022-09-18T19:50:29.045Z,65.69
2022-09-18T19:53:02.472Z,65.31
2022-09-18T19:55:33.581Z,65.10
2022-09-18T19:58:07.335Z,65.12
2022-09-18T20:00:47.733Z,64.97
2022-09-18T20:03:28.132Z,64.65
2022-09-18T20:06:22.608Z,65.07
2022-09-18T20:08:59.101Z,64.18
2022-09-18T20:11:35.784Z,63.93
2022-09-18T20:14:11.804Z,63.60
2022-09-18T20:16:51.400Z,63.80
2022-09-18T20:19:23.434Z,63.50
2022-09-18T20:21:52.462Z,63.53
2022-09-18T20:24:22.856Z,64.17
2022-09-18T20:26:53.755Z,65.06
2022-09-18T20:29:25.255Z,65.46
2022-09-18T20:31:53.975Z,65.04
2022-09-18T20:34:23.315Z,65.12
2022-09-18T20:36:55.070Z,64.95
2022-09-18T20:39:23.063Z,65.62
2022-09-18T20:41:55.497Z,66.34
2022-09-18T20:44:25.988Z,65.63
2022-09-18T20:46:59.229Z,66.45
2022-09-18T20:49:27.369Z,66.74
2022-09-18T20:51:55.273Z,66.99
2022-09-18T20:54:24.035Z,66.47
2022-09-18T20:56:52.311Z,66.44
2022-09-18T20:59:23.133Z,66.62
2022-09-18T21:01:52.000Z,65.60
2022-09-18T21:04:20.673Z,65.68
2022-09-18T21:07:12.151Z,66.83
2022-09-18T21:09:43.389Z,66.60
2022-09-18T21:12:18.228Z,67.46
2022-09-18T21:14:47.923Z,66.78
2022-09-18T21:17:20.381Z,68.04
2022-09-18T21:19:57.717Z,67.76
2022-09-18T21:22:28.472Z,66.96
2022-09-18T21:24:59.556Z,67.37
2022-09-18T21:27:34.895Z,67.46
2022-09-18T21:30:09.498Z,67.25
2022-09-18T21:32:40.292Z,68.66
2022-09-18T21:35:10.886Z,70.14
2022-09-18T21:37:44.710Z,70.73
2022-09-18T21:40:21.087Z,69.12
2022-09-18T21:42:52.909Z,68.97
2022-09-18T21:45:26.314Z,69.03
2022-09-18T21:47:57.277Z,68.15
2022-09-18T21:50:28.042Z,68.89
2022-09-18T21:52:56.426Z,68.16
2022-09-18T21:55:33.763Z,69.74
2022-09-18T21:58:01.951Z,68.99
2022-09-18T22:00:33.528Z,68.54
2022-09-18T22:03:10.294Z,69.62
2022-09-18T22:05:43.032Z,68.96
2022-09-18T22:08:13.886Z,67.94
2022-09-18T22:10:45.791Z,67.46
2022-09-18T22:13:14.834Z,67.16
2022-09-18T22:15:57.050Z,66.74
2022-09-18T22:18:31.406Z,68.14
2022-09-18T22:21:02.774Z,68.08
2022-09-18T22:23:35.971Z,67.81
2022-09-18T22:26:07.134Z,67.39
2022-09-18T22:28:40.502Z,66.85
2022-09-18T22:31:08.700Z,67.03
2022-09-18T22:33:40.070Z,66.71
2022-09-18T22:36:08.825Z,66.72
2022-09-18T22:38:42.562Z,66.17
2022-09-18T22:41:11.004Z,66.07
2022-09-18T22:43:39.178Z,66.05
2022-09-18T22:46:13.806Z,67.67
2022-09-18T22:48:42.286Z,66.97
2022-09-18T22:51:19.711Z,67.81
2022-09-18T22:54:01.473Z,67.78
2022-09-18T22:56:41.340Z,68.00
2022-09-18T22:59:14.594Z,68.25
2022-09-18T23:01:55.320Z,67.80
2022-09-18T23:04:26.494Z,67.95
2022-09-18T23:06:54.977Z,68.31
2022-09-18T23:09:29.441Z,68.48
2022-09-18T23:12:10.749Z,68.07
2022-09-18T23:14:44.087Z,68.12
2022-09-18T23:17:14.309Z,68.28
2022-09-18T23:19:45.816Z,69.68
2022-09-18T23:22:22.295Z,69.67
2022-09-18T23:24:53.400Z,68.18
2022-09-18T23:27:23.896Z,68.17
2022-09-18T23:30:00.723Z,70.08
2022-09-18T23:32:45.169Z,69.19
2022-09-18T23:35:19.231Z,68.32
2022-09-18T23:37:50.379Z,67.92
2022-09-18T23:40:26.885Z,68.24
2022-09-18T23:43:02.604Z,68.62
2022-09-18T23:45:35.847Z,67.80
2022-09-18T23:48:09.494Z,68.24
2022-09-18T23:50:37.869Z,69.23
2022-09-18T23:53:11.571Z,69.19
2022-09-18T23:55:42.343Z,68.61
2022-09-18T23:58:13.911Z,69.84
